Time;durP1;ratioP1;P1;durP2;ratioP2;P2;SDS_P1;SDS_P2;PMS_P1;PMS_P2;Temp;Humidity;BMP_temperature;BMP_pressure;BME280_temperature;BME280_humidity;BME280_pressure;Samples;Min_cycle;Max_cycle;Signal;HPM_P1;HPM_P2
2023/12/14 00:00:19;;;;;;;20.63;11.63;;;;;;;10.55;72.12;93604.31;5030481;28;20199;-46
2023/12/14 00:02:51;;;;;;;19.90;11.80;;;;;;;10.55;72.12;93640.09;5044892;28;20672;-46
2023/12/14 00:05:20;;;;;;;22.40;11.70;;;;;;;10.53;72.13;93596.03;5049649;28;20202;-46
2023/12/14 00:07:49;;;;;;;17.43;12.27;;;;;;;10.53;72.03;93616.47;5049378;28;20207;-46
2023/12/14 00:10:17;;;;;;;18.43;11.47;;;;;;;10.53;72.28;93623.34;5050674;28;20199;-47
2023/12/14 00:12:44;;;;;;;15.03;11.07;;;;;;;10.52;72.08;93614.88;5073687;28;20227;-49
2023/12/14 00:15:13;;;;;;;16.77;11.00;;;;;;;10.52;72.03;93621.75;5031838;28;20203;-47
2023/12/14 00:17:40;;;;;;;18.73;11.80;;;;;;;10.52;72.31;93631.97;5031478;28;20200;-47
2023/12/14 00:20:14;;;;;;;19.70;12.27;;;;;;;10.50;72.01;93621.91;5030416;28;20191;-45
2023/12/14 00:22:43;;;;;;;18.30;11.47;;;;;;;10.46;72.28;93612.97;5029705;28;20228;-46
2023/12/14 00:25:10;;;;;;;19.63;11.43;;;;;;;10.48;72.39;93630.69;5030630;28;20291;-46
2023/12/14 00:27:39;;;;;;;18.37;12.00;;;;;;;10.45;72.22;93626.72;5081566;28;20280;-54
2023/12/14 00:30:09;;;;;;;19.00;12.43;;;;;;;10.33;72.18;93597.34;5050217;28;20222;-46
2023/12/14 00:32:36;;;;;;;17.33;11.53;;;;;;;10.47;72.18;93629.09;5029876;28;20202;-47
2023/12/14 00:35:04;;;;;;;19.13;12.50;;;;;;;10.47;72.21;93635.00;5028744;28;20710;-46
2023/12/14 00:37:32;;;;;;;17.20;11.17;;;;;;;10.46;72.36;93620.66;5027699;28;20191;-46
2023/12/14 00:40:04;;;;;;;16.33;11.10;;;;;;;10.46;72.23;93607.88;5029340;28;20187;-46
2023/12/14 00:42:32;;;;;;;17.40;11.97;;;;;;;10.44;72.34;93634.53;5010564;28;20649;-46
2023/12/14 00:45:03;;;;;;;15.70;10.63;;;;;;;10.44;72.23;93619.19;5009760;28;20247;-46
2023/12/14 00:47:33;;;;;;;17.83;11.13;;;;;;;10.43;72.30;93622.72;5010053;28;20232;-46
2023/12/14 00:50:04;;;;;;;19.57;11.37;;;;;;;10.41;72.31;93614.44;5010623;28;20201;-47
2023/12/14 00:52:32;;;;;;;16.87;11.13;;;;;;;10.26;72.31;93599.75;5009873;28;20200;-47
2023/12/14 00:55:04;;;;;;;15.20;10.93;;;;;;;10.40;72.34;93612.81;5009662;28;20200;-47
2023/12/14 00:57:32;;;;;;;15.13;10.63;;;;;;;10.21;72.42;93607.09;5010049;28;20189;-45
2023/12/14 00:59:59;;;;;;;18.33;10.07;;;;;;;10.39;72.54;93616.34;5041692;28;20251;-46
2023/12/14 01:02:27;;;;;;;17.97;11.23;;;;;;;10.24;72.18;93621.31;5009538;28;20673;-46
2023/12/14 01:04:57;;;;;;;15.80;10.73;;;;;;;10.38;72.37;93614.75;5009240;28;20250;-45
2023/12/14 01:07:24;;;;;;;18.73;10.90;;;;;;;10.37;72.29;93631.84;5009580;28;20220;-46
2023/12/14 01:09:56;;;;;;;17.70;10.17;;;;;;;10.36;72.50;93617.44;5009360;28;20223;-46
2023/12/14 01:12:39;;;;;;;14.83;9.93;;;;;;;10.36;72.53;93624.31;5039653;28;20189;-51
2023/12/14 01:15:13;;;;;;;14.90;10.70;;;;;;;10.33;72.30;93628.03;5007768;28;20203;-45
2023/12/14 01:17:40;;;;;;;15.53;10.27;;;;;;;10.07;72.40;93578.84;5038889;28;20307;-47
2023/12/14 01:20:08;;;;;;;17.60;10.73;;;;;;;10.32;72.52;93616.22;5008176;28;20203;-45
2023/12/14 01:22:36;;;;;;;13.13;9.20;;;;;;;10.32;72.61;93620.50;5009398;28;20282;-47
2023/12/14 01:25:05;;;;;;;15.87;9.80;;;;;;;10.27;72.41;93610.78;5011502;28;20184;-51
2023/12/14 01:27:34;;;;;;;18.30;10.97;;;;;;;10.24;72.59;93611.09;5012036;28;20258;-46
2023/12/14 01:30:03;;;;;;;16.50;10.63;;;;;;;10.30;72.74;93615.56;5013271;28;20192;-45
2023/12/14 01:32:35;;;;;;;14.37;10.00;;;;;;;10.27;72.71;93621.78;5009932;28;20215;-47
2023/12/14 01:35:11;;;;;;;16.47;10.73;;;;;;;10.27;72.67;93621.00;5048597;28;20233;-45
2023/12/14 01:37:39;;;;;;;17.53;9.80;;;;;;;10.25;72.62;93612.69;5053025;28;20202;-47
2023/12/14 01:40:10;;;;;;;14.40;9.00;;;;;;;10.24;72.68;93624.69;5051327;28;20190;-46
2023/12/14 01:42:40;;;;;;;13.40;9.67;;;;;;;10.23;72.68;93617.13;5052065;28;20649;-46
2023/12/14 01:45:10;;;;;;;16.13;10.30;;;;;;;10.17;72.53;93605.00;5033048;28;20744;-47
2023/12/14 01:47:39;;;;;;;13.60;9.63;;;;;;;10.18;72.59;93609.16;5033810;28;20223;-45
2023/12/14 01:50:12;;;;;;;12.57;9.33;;;;;;;10.21;72.75;93639.50;5031033;28;20202;-45
2023/12/14 01:52:39;;;;;;;14.70;9.40;;;;;;;10.20;72.78;93591.94;5032896;28;20191;-46
2023/12/14 01:55:07;;;;;;;14.77;9.83;;;;;;;10.05;72.66;93602.78;5032905;28;20287;-46
2023/12/14 01:57:33;;;;;;;18.70;10.47;;;;;;;10.15;72.88;93602.63;5034604;28;20684;-47
2023/12/14 02:00:02;;;;;;;15.73;10.53;;;;;;;10.01;72.88;93578.53;5034320;28;20568;-52
2023/12/14 02:02:32;;;;;;;13.83;9.40;;;;;;;10.16;72.53;93604.22;5048700;28;20184;-46
2023/12/14 02:04:59;;;;;;;13.03;9.27;;;;;;;10.17;72.95;93603.25;5061942;28;20217;-48
2023/12/14 02:07:29;;;;;;;15.80;9.90;;;;;;;10.16;72.96;93611.09;5051957;28;20258;-46
2023/12/14 02:09:56;;;;;;;12.77;9.17;;;;;;;10.16;72.67;93580.44;5060965;28;20195;-46
2023/12/14 02:12:26;;;;;;;15.07;9.87;;;;;;;10.08;72.90;93567.66;5065483;28;20198;-45
2023/12/14 02:14:57;;;;;;;15.27;10.10;;;;;;;10.16;72.82;93586.34;5056017;28;20578;-47
2023/12/14 02:17:27;;;;;;;16.77;10.20;;;;;;;10.14;72.87;93584.88;5055555;28;20573;-46
2023/12/14 02:19:56;;;;;;;13.80;8.37;;;;;;;10.17;72.76;93557.28;5052135;28;20198;-46
2023/12/14 02:22:27;;;;;;;12.60;9.20;;;;;;;10.18;72.75;93578.50;5051773;28;20262;-46
2023/12/14 02:25:00;;;;;;;14.47;9.23;;;;;;;10.19;72.82;93587.75;5050991;28;20222;-47
2023/12/14 02:27:27;;;;;;;13.03;9.30;;;;;;;10.19;72.95;93574.97;5049432;28;20276;-47
2023/12/14 02:30:04;;;;;;;13.27;9.33;;;;;;;10.20;73.00;93579.16;5031985;28;20187;-46
2023/12/14 02:32:32;;;;;;;12.97;9.30;;;;;;;10.07;72.77;93569.44;5030761;28;20659;-46
2023/12/14 02:35:02;;;;;;;14.23;9.93;;;;;;;10.21;72.86;93571.31;5050507;28;20561;-46
2023/12/14 02:37:33;;;;;;;12.53;9.03;;;;;;;10.22;72.80;93575.47;5050671;28;20230;-45
2023/12/14 02:40:02;;;;;;;13.63;9.30;;;;;;;10.23;72.85;93566.84;5050171;28;20235;-47
2023/12/14 02:42:31;;;;;;;13.17;9.57;;;;;;;10.23;72.89;93594.97;5046862;28;20195;-47
2023/12/14 02:45:01;;;;;;;14.63;9.53;;;;;;;10.24;72.88;93594.03;5030367;28;21034;-46
2023/12/14 02:50:12;;;;;;;13.60;8.97;;;;;;;10.26;72.95;93609.19;5049155;28;20217;-46
2023/12/14 02:52:39;;;;;;;13.40;8.57;;;;;;;10.24;72.74;93598.31;5051157;28;20191;-44
2023/12/14 02:55:08;;;;;;;12.43;8.63;;;;;;;10.26;72.88;93581.06;5042002;28;20198;-47
2023/12/14 02:57:35;;;;;;;14.80;8.80;;;;;;;10.27;72.90;93611.56;5031407;28;20191;-47
2023/12/14 03:00:02;;;;;;;14.23;8.43;;;;;;;10.18;72.88;93571.63;5031510;28;20283;-46
2023/12/14 03:02:29;;;;;;;12.57;8.30;;;;;;;10.27;72.97;93605.66;5030195;28;20192;-46
2023/12/14 03:04:55;;;;;;;13.97;8.30;;;;;;;10.23;72.77;93597.50;5030915;28;20680;-46
2023/12/14 03:07:29;;;;;;;12.27;8.47;;;;;;;10.30;72.74;93592.56;5031381;28;20279;-46
2023/12/14 03:09:57;;;;;;;12.53;8.40;;;;;;;10.32;72.69;93582.16;5044064;28;20195;-47
2023/12/14 03:12:35;;;;;;;12.33;8.53;;;;;;;10.32;72.71;93582.16;5051208;28;20291;-46
2023/12/14 03:15:04;;;;;;;10.17;7.30;;;;;;;10.30;72.76;93575.47;5042159;28;20198;-47
2023/12/14 03:17:32;;;;;;;10.93;7.87;;;;;;;10.26;73.05;93553.75;5032216;28;20743;-46
2023/12/14 03:19:59;;;;;;;12.97;8.30;;;;;;;10.32;72.83;93565.09;5031990;28;20658;-46
2023/12/14 03:22:25;;;;;;;11.90;8.17;;;;;;;10.33;72.83;93576.91;5031753;28;20223;-47
2023/12/14 03:24:53;;;;;;;11.97;7.87;;;;;;;10.28;73.00;93551.06;5031931;28;20183;-45
2023/12/14 03:27:20;;;;;;;12.40;8.03;;;;;;;10.30;72.79;93570.38;5031229;28;20679;-46
2023/12/14 03:29:48;;;;;;;11.83;8.10;;;;;;;10.24;72.83;93555.69;5031137;28;20624;-44
2023/12/14 03:32:14;;;;;;;10.83;7.50;;;;;;;10.30;72.95;93561.91;5030863;28;20191;-46
2023/12/14 03:34:41;;;;;;;9.87;7.27;;;;;;;10.34;72.85;93554.72;5032197;28;20194;-47
2023/12/14 03:37:08;;;;;;;13.90;7.93;;;;;;;10.34;72.99;93544.50;5050392;28;20630;-47
2023/12/14 03:39:39;;;;;;;10.10;7.60;;;;;;;10.34;72.85;93547.03;5050728;28;20655;-46
2023/12/14 03:42:08;;;;;;;11.00;7.60;;;;;;;10.34;72.78;93541.94;5050191;28;20186;-46
2023/12/14 03:44:44;;;;;;;10.20;7.40;;;;;;;10.34;72.99;93540.16;5050160;28;20195;-46
2023/12/14 03:47:16;;;;;;;13.00;7.47;;;;;;;10.34;72.89;93536.81;5048443;28;20686;-46
2023/12/14 03:49:43;;;;;;;12.50;7.80;;;;;;;10.33;72.90;93551.38;5030305;28;20231;-46
2023/12/14 03:52:12;;;;;;;9.37;7.00;;;;;;;10.34;72.92;93527.41;5030281;28;20192;-46
2023/12/14 03:54:47;;;;;;;10.00;7.10;;;;;;;10.34;72.99;93536.81;5030980;28;20196;-46
2023/12/14 03:57:13;;;;;;;9.70;7.53;;;;;;;10.30;72.91;93513.34;5031465;28;20278;-47
2023/12/14 03:59:44;;;;;;;9.80;7.47;;;;;;;10.32;72.96;93534.44;5029844;28;20854;-47
2023/12/14 04:02:17;;;;;;;10.07;7.57;;;;;;;10.33;72.82;93537.78;5030765;28;20672;-47
2023/12/14 04:04:45;;;;;;;8.50;7.10;;;;;;;10.30;72.94;93519.25;5051145;28;20187;-48
2023/12/14 04:07:11;;;;;;;9.33;6.80;;;;;;;10.30;73.03;93523.56;5050837;28;20188;-45
2023/12/14 04:09:42;;;;;;;10.70;7.17;;;;;;;10.32;72.92;93549.78;5050453;28;20221;-45
2023/12/14 04:12:11;;;;;;;11.73;7.53;;;;;;;10.12;72.68;93511.00;5048960;28;20205;-46
2023/12/14 04:14:41;;;;;;;11.00;6.87;;;;;;;10.34;72.95;93555.50;5028795;28;20288;-45
2023/12/14 04:17:09;;;;;;;9.87;7.10;;;;;;;10.24;72.82;93542.91;5030031;28;20195;-46
2023/12/14 04:19:41;;;;;;;8.13;6.43;;;;;;;10.34;72.96;93552.94;5049674;28;20198;-47
2023/12/14 04:22:08;;;;;;;9.40;7.17;;;;;;;10.35;73.14;93566.53;5048367;28;20223;-46
2023/12/14 04:24:36;;;;;;;11.43;7.63;;;;;;;10.35;72.87;93569.06;5049782;28;20278;-46
2023/12/14 04:27:03;;;;;;;10.57;6.87;;;;;;;10.37;73.07;93556.94;5047958;28;20206;-46
2023/12/14 04:29:32;;;;;;;8.53;6.50;;;;;;;10.26;72.96;93527.41;5049817;28;20238;-46
2023/12/14 04:32:03;;;;;;;10.27;6.77;;;;;;;10.37;72.92;93554.38;5049036;28;20199;-46
2023/12/14 04:34:32;;;;;;;9.77;6.93;;;;;;;10.36;73.10;93551.00;5009024;28;20239;-45
2023/12/14 04:37:06;;;;;;;10.23;6.67;;;;;;;10.36;73.12;93557.88;5041651;28;20230;-46
2023/12/14 04:39:37;;;;;;;8.90;6.33;;;;;;;10.36;73.09;93552.78;5044467;28;20231;-46
2023/12/14 04:42:07;;;;;;;8.73;6.40;;;;;;;10.38;73.01;93550.88;5028598;28;20249;-45
2023/12/14 04:44:35;;;;;;;9.17;6.83;;;;;;;10.38;72.91;93559.31;5028692;28;20196;-46
2023/12/14 04:47:03;;;;;;;9.10;6.47;;;;;;;10.38;73.30;93536.34;5029238;28;20668;-46
2023/12/14 04:49:33;;;;;;;9.43;6.27;;;;;;;10.31;73.06;93527.72;5027948;28;20226;-46
2023/12/14 04:52:18;;;;;;;9.37;6.63;;;;;;;10.41;73.13;93555.66;5012205;28;20241;-45
2023/12/14 04:54:57;;;;;;;9.13;6.60;;;;;;;10.35;73.38;93541.75;5034496;28;20278;-45
2023/12/14 04:57:25;;;;;;;9.37;6.37;;;;;;;10.39;73.06;93544.78;5038770;28;20195;-46
2023/12/14 04:59:53;;;;;;;9.70;6.37;;;;;;;10.41;73.19;93559.00;5029422;28;20199;-47
2023/12/14 05:02:22;;;;;;;8.40;6.00;;;;;;;10.41;73.09;93551.34;5033500;28;20194;-46
2023/12/14 05:04:55;;;;;;;14.00;6.30;;;;;;;10.41;73.22;93556.44;5052318;28;20197;-47
2023/12/14 05:07:34;;;;;;;10.03;5.87;;;;;;;10.42;72.96;93552.94;5031910;28;20302;-45
2023/12/14 05:10:09;;;;;;;8.03;6.23;;;;;;;10.28;73.11;93521.19;5028310;28;20250;-47
2023/12/14 05:12:40;;;;;;;8.83;6.37;;;;;;;10.41;73.27;93559.00;5029104;28;20240;-47
2023/12/14 05:15:08;;;;;;;9.03;5.87;;;;;;;10.41;72.94;93551.34;5029199;28;20203;-46
2023/12/14 05:17:40;;;;;;;7.20;5.87;;;;;;;10.41;73.25;93542.88;5048992;28;20194;-46
2023/12/14 05:20:20;;;;;;;8.07;6.30;;;;;;;10.41;73.11;93541.13;5012721;28;20635;-47
2023/12/14 05:22:48;;;;;;;8.40;5.77;;;;;;;10.41;73.22;93553.91;5028966;28;20238;-46
2023/12/14 05:25:18;;;;;;;6.77;4.10;;;;;;;10.45;80.09;93544.94;5029539;28;20235;-45
2023/12/14 05:27:46;;;;;;;5.53;4.53;;;;;;;10.99;100.00;93547.56;5029675;28;20184;-44
2023/12/14 05:30:14;;;;;;;6.90;4.80;;;;;;;11.60;100.00;93562.22;5033149;28;20218;-46
2023/12/14 05:32:50;;;;;;;7.67;4.37;;;;;;;12.14;100.00;93554.44;5040421;28;20191;-47
2023/12/14 05:35:20;;;;;;;5.97;5.07;;;;;;;12.48;100.00;93556.47;5041075;28;20290;-46
2023/12/14 05:37:52;;;;;;;5.93;4.83;;;;;;;12.67;97.43;93555.94;5043124;28;20191;-47
2023/12/14 05:40:19;;;;;;;7.03;5.27;;;;;;;12.67;95.53;93576.44;5029723;28;20730;-47
2023/12/14 05:42:47;;;;;;;7.03;5.60;;;;;;;12.63;93.22;93585.47;5029041;28;20214;-47
2023/12/14 05:45:14;;;;;;;10.73;4.80;;;;;;;12.54;91.17;93574.50;5034119;28;20215;-47
2023/12/14 05:47:45;;;;;;;7.63;5.93;;;;;;;12.44;89.16;93573.19;5039053;28;20191;-46
2023/12/14 05:50:14;;;;;;;7.67;5.67;;;;;;;12.33;87.86;93586.44;5049192;28;20258;-48
2023/12/14 05:52:45;;;;;;;7.03;5.13;;;;;;;12.22;86.56;93579.97;5047564;28;20201;-46
2023/12/14 05:55:17;;;;;;;7.00;6.00;;;;;;;12.11;85.68;93586.31;5049016;28;20203;-45
2023/12/14 05:57:47;;;;;;;8.20;5.83;;;;;;;12.01;84.74;93580.66;5037543;28;20287;-46
2023/12/14 06:00:15;;;;;;;7.63;6.00;;;;;;;11.92;84.59;93584.25;5029188;28;20230;-46
2023/12/14 06:02:42;;;;;;;8.27;6.20;;;;;;;11.85;83.83;93591.03;5028968;28;20191;-45
2023/12/14 06:05:10;;;;;;;7.80;5.93;;;;;;;11.70;83.48;93578.13;5029093;28;20191;-47
2023/12/14 06:07:37;;;;;;;8.53;6.07;;;;;;;11.71;82.99;93592.53;5028698;28;20199;-46
2023/12/14 06:10:08;;;;;;;7.43;5.80;;;;;;;11.65;82.71;93585.53;5029519;28;20592;-46
2023/12/14 06:12:46;;;;;;;7.97;6.37;;;;;;;11.59;82.03;93592.16;5037246;28;20198;-48
2023/12/14 06:15:16;;;;;;;6.70;5.67;;;;;;;11.54;81.72;93596.97;5046589;28;20201;-49
2023/12/14 06:17:43;;;;;;;10.47;6.50;;;;;;;11.48;81.60;93593.31;5036778;28;20528;-46
2023/12/14 06:20:14;;;;;;;11.50;7.10;;;;;;;11.26;81.19;93564.19;5032094;28;20202;-45
2023/12/14 06:22:41;;;;;;;8.13;6.33;;;;;;;11.43;80.90;93610.97;5031715;28;20227;-46
2023/12/14 06:25:12;;;;;;;11.17;6.20;;;;;;;11.41;80.58;93607.00;5032178;28;20626;-46
2023/12/14 06:27:46;;;;;;;11.20;7.57;;;;;;;11.39;80.35;93616.59;5030858;28;20194;-51
2023/12/14 06:30:19;;;;;;;11.00;7.40;;;;;;;11.35;80.25;93605.88;5032017;28;20293;-46
2023/12/14 06:32:47;;;;;;;9.07;6.83;;;;;;;11.38;79.88;93612.44;5032159;28;20195;-46
2023/12/14 06:35:16;;;;;;;9.57;6.87;;;;;;;11.36;79.65;93607.50;5032024;28;20199;-47
2023/12/14 06:37:43;;;;;;;8.47;6.43;;;;;;;11.34;79.54;93604.28;5031981;28;20199;-46
2023/12/14 06:40:11;;;;;;;8.30;6.30;;;;;;;11.40;79.29;93619.00;5031832;28;20198;-46
2023/12/14 06:42:41;;;;;;;11.33;7.13;;;;;;;11.43;79.16;93615.28;5031551;28;20188;-46
2023/12/14 06:45:13;;;;;;;9.30;6.77;;;;;;;11.45;78.95;93608.25;5031862;28;20200;-46
2023/12/14 06:47:41;;;;;;;10.60;7.17;;;;;;;11.48;78.65;93633.47;5031873;28;20283;-46
2023/12/14 06:50:10;;;;;;;10.00;7.30;;;;;;;11.50;78.50;93629.00;5031633;28;20311;-46
2023/12/14 06:52:39;;;;;;;15.07;6.97;;;;;;;11.53;78.39;93637.16;5031517;28;20644;-47
2023/12/14 06:55:10;;;;;;;10.27;7.40;;;;;;;11.59;78.18;93651.03;5031117;28;20184;-47
2023/12/14 06:57:40;;;;;;;9.03;6.77;;;;;;;11.64;77.84;93641.06;5030210;28;20584;-46
2023/12/14 07:00:10;;;;;;;9.87;7.50;;;;;;;11.71;77.58;93623.28;5031648;28;20282;-46
2023/12/14 07:02:43;;;;;;;11.70;6.87;;;;;;;11.76;77.53;93619.22;5031302;28;20653;-46
2023/12/14 07:05:10;;;;;;;8.67;6.50;;;;;;;11.83;77.22;93626.25;5031580;28;20643;-47
2023/12/14 07:07:37;;;;;;;11.40;7.03;;;;;;;11.90;76.91;93638.19;5031095;28;20188;-47
2023/12/14 07:10:10;;;;;;;10.80;6.93;;;;;;;12.00;76.62;93641.34;5031251;28;20227;-47
2023/12/14 07:12:39;;;;;;;10.63;7.03;;;;;;;12.11;76.25;93642.69;5029918;28;20681;-45
2023/12/14 07:15:09;;;;;;;9.37;6.50;;;;;;;12.23;75.99;93649.00;5031487;28;20200;-48
2023/12/14 07:17:38;;;;;;;8.47;6.57;;;;;;;12.34;75.68;93647.78;5030664;28;20195;-47
2023/12/14 07:20:08;;;;;;;9.67;6.50;;;;;;;12.43;75.55;93651.84;5030298;28;20196;-45
2023/12/14 07:22:33;;;;;;;9.60;6.33;;;;;;;12.45;75.24;93649.13;5029574;28;20239;-46
2023/12/14 07:25:03;;;;;;;6.80;6.10;;;;;;;12.54;74.91;93648.06;5031116;28;20709;-47
2023/12/14 07:27:32;;;;;;;11.07;6.20;;;;;;;12.72;74.76;93665.69;5031160;28;20200;-46
2023/12/14 07:30:06;;;;;;;9.57;6.77;;;;;;;12.80;74.42;93679.22;5030186;28;20227;-47
2023/12/14 07:32:41;;;;;;;9.80;6.47;;;;;;;12.88;74.09;93654.47;5030958;28;20639;-45
2023/12/14 07:35:09;;;;;;;7.97;6.40;;;;;;;13.00;74.07;93650.50;5031036;28;20192;-46
2023/12/14 07:37:36;;;;;;;12.57;6.43;;;;;;;13.09;73.55;93669.94;5030760;28;20211;-47
2023/12/14 07:40:04;;;;;;;9.27;6.40;;;;;;;13.20;73.42;93666.13;5031123;28;20203;-48
2023/12/14 07:42:34;;;;;;;10.67;6.10;;;;;;;13.29;73.22;93672.78;5031279;28;20207;-48
2023/12/14 07:45:02;;;;;;;10.27;5.87;;;;;;;13.37;72.90;93675.25;5031400;28;20192;-47
2023/12/14 07:47:29;;;;;;;11.00;6.70;;;;;;;13.48;72.58;93669.66;5030269;28;20254;-47
2023/12/14 07:50:09;;;;;;;8.60;6.20;;;;;;;13.55;72.46;93662.00;5062985;28;20224;-47
2023/12/14 07:52:44;;;;;;;10.73;6.57;;;;;;;13.63;72.12;93656.78;5030761;28;20623;-47
2023/12/14 07:55:17;;;;;;;10.00;6.47;;;;;;;13.73;71.95;93675.28;5030690;28;20190;-45
2023/12/14 07:57:44;;;;;;;8.97;5.67;;;;;;;13.80;71.69;93683.81;5030415;28;20195;-46
2023/12/14 08:00:13;;;;;;;6.80;5.30;;;;;;;13.44;71.21;93621.41;5030253;28;20295;-48
2023/12/14 08:02:41;;;;;;;9.73;5.83;;;;;;;13.98;71.12;93682.63;5030159;28;20188;-48
2023/12/14 08:05:12;;;;;;;8.37;6.57;;;;;;;13.91;70.81;93662.00;5029187;28;20272;-46
2023/12/14 08:07:42;;;;;;;8.10;5.43;;;;;;;14.17;70.50;93673.50;5029116;28;20195;-47
2023/12/14 08:10:15;;;;;;;6.07;5.27;;;;;;;14.13;70.12;93626.00;5029440;28;20337;-46
2023/12/14 08:12:59;;;;;;;7.97;6.13;;;;;;;14.44;69.99;93656.50;5061175;28;20250;-46
2023/12/14 08:15:32;;;;;;;8.70;5.33;;;;;;;14.64;69.65;93667.00;5030453;28;20249;-46
2023/12/14 08:18:00;;;;;;;10.00;5.53;;;;;;;14.74;69.61;93691.41;5030042;28;20187;-47
2023/12/14 08:20:37;;;;;;;8.37;5.30;;;;;;;14.80;69.22;93672.63;5029769;28;20207;-46
2023/12/14 08:23:09;;;;;;;6.37;5.30;;;;;;;14.87;69.15;93688.13;5028753;28;20231;-46
2023/12/14 08:25:38;;;;;;;6.97;5.47;;;;;;;14.95;69.07;93679.47;5028870;28;20580;-46
2023/12/14 08:28:10;;;;;;;8.37;5.43;;;;;;;15.00;69.01;93683.03;5028790;28;20291;-47
2023/12/14 08:30:39;;;;;;;10.83;6.30;;;;;;;15.08;68.77;93678.75;5030246;28;20216;-47
2023/12/14 08:33:06;;;;;;;6.83;4.97;;;;;;;15.14;68.50;93698.56;5029536;28;20215;-46
2023/12/14 08:35:38;;;;;;;9.13;5.40;;;;;;;15.05;68.42;93661.88;5029888;28;20199;-46
2023/12/14 08:38:05;;;;;;;6.57;5.33;;;;;;;15.27;68.30;93703.78;5060208;28;20196;-46
2023/12/14 08:40:34;;;;;;;6.20;5.33;;;;;;;15.34;67.94;93693.53;5029324;28;20196;-46
2023/12/14 08:43:04;;;;;;;7.40;5.57;;;;;;;15.33;67.67;93677.28;5029552;28;20613;-46
2023/12/14 08:45:33;;;;;;;5.90;5.30;;;;;;;15.49;67.59;93694.19;5029970;28;20207;-46
2023/12/14 08:48:03;;;;;;;7.67;4.83;;;;;;;15.53;67.56;93691.03;5028534;28;20254;-47
2023/12/14 08:50:30;;;;;;;7.70;5.03;;;;;;;15.57;67.21;93699.16;5030005;28;20688;-47
2023/12/14 08:52:58;;;;;;;6.13;4.90;;;;;;;15.69;67.13;93695.09;5029383;28;20199;-48
2023/12/14 08:55:29;;;;;;;6.67;4.60;;;;;;;15.77;66.95;93689.75;5028689;28;20764;-46
2023/12/14 08:57:58;;;;;;;9.53;5.23;;;;;;;15.85;66.70;93686.22;5028170;28;20195;-50
2023/12/14 09:00:27;;;;;;;8.80;4.73;;;;;;;15.90;66.58;93678.69;5029853;28;20183;-46
2023/12/14 09:02:55;;;;;;;7.43;4.80;;;;;;;15.99;66.21;93708.47;5029760;28;20188;-48
2023/12/14 09:05:22;;;;;;;6.33;5.27;;;;;;;16.08;66.10;93701.34;5029881;28;20198;-46
2023/12/14 09:07:52;;;;;;;7.87;4.37;;;;;;;16.11;65.77;93689.84;5028650;28;20279;-47
2023/12/14 09:10:25;;;;;;;11.97;4.97;;;;;;;16.22;65.80;93697.78;5029871;28;20247;-46
2023/12/14 09:13:00;;;;;;;6.80;4.40;;;;;;;16.31;65.49;93691.44;5029337;28;20291;-47
2023/12/14 09:15:27;;;;;;;8.50;4.80;;;;;;;16.39;65.43;93684.50;5030262;28;20204;-46
2023/12/14 09:17:54;;;;;;;12.40;4.97;;;;;;;16.19;65.33;93649.19;5030292;28;20191;-48
2023/12/14 09:20:21;;;;;;;6.90;4.30;;;;;;;16.51;65.13;93682.91;5029576;28;20580;-48
2023/12/14 09:22:48;;;;;;;7.53;5.00;;;;;;;16.58;64.96;93690.66;5029432;28;20231;-48
2023/12/14 09:25:18;;;;;;;5.87;4.63;;;;;;;16.63;64.81;93689.06;5029496;28;20188;-47
2023/12/14 09:27:46;;;;;;;6.20;4.90;;;;;;;16.71;64.70;93680.31;5028663;28;20199;-46
2023/12/14 09:30:13;;;;;;;9.97;4.87;;;;;;;16.73;64.63;93686.13;5029961;28;20215;-47
2023/12/14 09:32:40;;;;;;;7.87;4.63;;;;;;;16.28;64.37;93611.88;5030818;28;20184;-46
2023/12/14 09:35:07;;;;;;;5.87;4.73;;;;;;;16.86;64.38;93706.75;5029435;28;20188;-47
2023/12/14 09:37:35;;;;;;;6.03;5.40;;;;;;;16.93;64.19;93702.38;5029357;28;20203;-48
2023/12/14 09:40:02;;;;;;;6.53;4.33;;;;;;;16.99;64.04;93713.69;5029231;28;20208;-47
2023/12/14 09:42:29;;;;;;;5.43;4.70;;;;;;;17.03;63.91;93713.09;5029417;28;20188;-47
2023/12/14 09:44:58;;;;;;;6.90;4.93;;;;;;;17.09;63.86;93696.00;5029079;28;20202;-47
2023/12/14 09:47:25;;;;;;;4.83;4.33;;;;;;;17.13;63.77;93723.00;5033016;28;20195;-47
2023/12/14 09:49:53;;;;;;;7.60;4.60;;;;;;;17.13;63.52;93719.63;5033159;28;20184;-48
2023/12/14 09:52:20;;;;;;;6.67;4.67;;;;;;;17.23;63.46;93715.66;5033077;28;20279;-48
2023/12/14 09:54:46;;;;;;;5.37;4.70;;;;;;;17.29;63.23;93714.81;5032866;28;20195;-47
2023/12/14 09:57:13;;;;;;;8.23;5.07;;;;;;;17.33;63.17;93730.72;5033021;28;20192;-48
2023/12/14 09:59:41;;;;;;;6.30;4.63;;;;;;;17.39;62.96;93724.75;5033360;28;20188;-47
2023/12/14 10:02:14;;;;;;;5.13;4.57;;;;;;;17.44;62.96;93727.53;5033169;28;20672;-47
2023/12/14 10:04:41;;;;;;;7.17;4.57;;;;;;;17.44;63.01;93719.78;5033268;28;20188;-47
2023/12/14 10:07:08;;;;;;;7.57;4.73;;;;;;;17.48;62.93;93708.00;5032902;28;20210;-48
2023/12/14 10:09:36;;;;;;;10.90;5.03;;;;;;;16.42;62.91;93552.50;5032786;28;20191;-46
2023/12/14 10:12:06;;;;;;;7.87;4.80;;;;;;;17.49;62.79;93719.94;5032651;28;20723;-46
2023/12/14 10:14:33;;;;;;;4.63;4.00;;;;;;;17.47;62.94;93721.94;5033249;28;20287;-53
2023/12/14 10:17:00;;;;;;;5.93;4.33;;;;;;;16.70;62.85;93601.28;5043015;28;20195;-48
2023/12/14 10:19:28;;;;;;;7.60;4.37;;;;;;;17.43;62.78;93712.22;5049599;28;20695;-48
2023/12/14 10:21:56;;;;;;;5.47;4.20;;;;;;;17.40;62.85;93710.03;5033449;28;20640;-46
2023/12/14 10:24:24;;;;;;;9.90;5.17;;;;;;;17.38;62.74;93709.44;5032834;28;20199;-49
2023/12/14 10:26:52;;;;;;;4.87;4.37;;;;;;;17.35;62.73;93708.03;5032504;28;20586;-46
2023/12/14 10:29:18;;;;;;;4.97;4.23;;;;;;;17.21;62.90;93683.25;5034332;28;20199;-47
2023/12/14 10:31:45;;;;;;;7.27;4.40;;;;;;;17.23;62.85;93694.97;5032822;28;20246;-47
2023/12/14 10:34:13;;;;;;;10.57;4.70;;;;;;;17.30;62.77;93720.78;5032512;28;20196;-47
2023/12/14 10:36:44;;;;;;;9.43;5.83;;;;;;;17.09;62.63;93692.63;5032060;28;20227;-46
2023/12/14 10:39:16;;;;;;;8.57;4.63;;;;;;;17.23;62.75;93733.75;5032396;28;20688;-47
2023/12/14 10:41:43;;;;;;;9.53;4.40;;;;;;;17.14;62.81;93721.22;5031864;28;20273;-47
2023/12/14 10:44:11;;;;;;;8.47;5.40;;;;;;;17.15;62.78;93736.53;5032190;28;20203;-48
2023/12/14 10:46:38;;;;;;;7.43;4.90;;;;;;;17.10;62.92;93731.19;5032016;28;20204;-49
2023/12/14 10:49:06;;;;;;;7.90;5.47;;;;;;;16.58;63.19;93672.56;5032101;28;20269;-46
2023/12/14 10:51:34;;;;;;;7.23;5.17;;;;;;;16.88;62.94;93735.78;5032201;28;20247;-47
2023/12/14 10:54:03;;;;;;;8.57;5.63;;;;;;;16.60;62.91;93691.25;5031987;28;20214;-47
2023/12/14 10:56:30;;;;;;;10.27;5.27;;;;;;;16.95;63.20;93770.13;5031769;28;20646;-47
2023/12/14 10:59:00;;;;;;;11.00;5.37;;;;;;;16.93;63.35;93766.97;5031699;28;20660;-47
2023/12/14 11:01:27;;;;;;;7.57;5.63;;;;;;;16.89;63.46;93760.59;5032297;28;20200;-46
2023/12/14 11:03:56;;;;;;;7.53;5.03;;;;;;;16.62;63.54;93739.09;5031727;28;20202;-47
2023/12/14 11:06:30;;;;;;;6.60;5.07;;;;;;;16.79;63.71;93786.78;5032063;28;20254;-47
2023/12/14 11:09:00;;;;;;;7.70;4.77;;;;;;;16.72;63.87;93796.34;5032003;28;20282;-45
2023/12/14 11:11:31;;;;;;;7.80;5.13;;;;;;;16.62;64.09;93788.13;5031512;28;20314;-47
2023/12/14 11:13:58;;;;;;;10.07;5.00;;;;;;;16.54;64.19;93783.97;5031537;28;20192;-47
2023/12/14 11:16:28;;;;;;;6.43;4.73;;;;;;;16.37;64.38;93784.56;5031547;28;20211;-47
2023/12/14 11:19:25;;;;;;;5.97;4.63;;;;;;;16.36;64.51;93806.16;5031405;28;20191;-48
2023/12/14 11:22:10;;;;;;;6.13;4.17;;;;;;;16.23;64.49;93802.53;5030970;28;20228;-46
2023/12/14 11:24:38;;;;;;;5.50;4.43;;;;;;;16.15;64.80;93804.50;5031381;28;20203;-48
2023/12/14 11:27:07;;;;;;;7.50;4.43;;;;;;;16.08;64.90;93806.28;5031439;28;20199;-48
2023/12/14 11:29:34;;;;;;;7.87;3.90;;;;;;;15.98;64.92;93822.13;5031708;28;20199;-47
2023/12/14 11:32:01;;;;;;;5.27;3.97;;;;;;;15.87;65.02;93814.91;5031333;28;20208;-47
2023/12/14 11:34:28;;;;;;;6.43;4.30;;;;;;;15.86;65.10;93826.22;5031585;28;20210;-47
2023/12/14 11:36:55;;;;;;;6.23;3.80;;;;;;;15.77;65.31;93831.53;5031146;28;20196;-47
2023/12/14 11:39:22;;;;;;;5.50;3.53;;;;;;;15.71;65.30;93827.13;5031682;28;20206;-47
2023/12/14 11:42:00;;;;;;;5.73;3.30;;;;;;;15.65;65.43;93840.00;5031886;28;20554;-48